createdAt,value
2018-11-29T00:00:19.840Z,100701.91
2018-11-29T00:00:54.476Z,100704.05
2018-11-29T00:01:29.370Z,100696.28
2018-11-29T00:02:04.084Z,100685.67
2018-11-29T00:02:38.745Z,100693.78
2018-11-29T00:03:13.398Z,100694.58
2018-11-29T00:03:48.123Z,100695.45
2018-11-29T00:04:22.763Z,100691.66
2018-11-29T00:04:57.404Z,100690.42
2018-11-29T00:05:32.449Z,100692.08
2018-11-29T00:06:07.049Z,100692.82
2018-11-29T00:06:41.666Z,100691.09
2018-11-29T00:07:16.279Z,100694.95
2018-11-29T00:07:51.281Z,100689.33
2018-11-29T00:08:25.918Z,100688.85
2018-11-29T00:09:00.536Z,100688.83
2018-11-29T00:09:39.510Z,100684.61
2018-11-29T00:10:14.201Z,100685.83
2018-11-29T00:10:48.862Z,100688.33
2018-11-29T00:11:23.505Z,100689.69
2018-11-29T00:17:02.882Z,100683.84
2018-11-29T00:17:38.690Z,100684.33
2018-11-29T00:18:13.357Z,100680.96
2018-11-29T00:18:48.070Z,100678.89
2018-11-29T00:19:22.773Z,100678.94
2018-11-29T00:19:57.377Z,100682.78
2018-11-29T00:20:32.544Z,100670.34
2018-11-29T00:21:07.456Z,100676.75
2018-11-29T00:21:42.156Z,100674.56
2018-11-29T00:22:16.786Z,100674.50
2018-11-29T00:22:52.007Z,100677.44
2018-11-29T00:23:26.632Z,100675.34
2018-11-29T00:24:01.236Z,100676.64
2018-11-29T00:24:35.895Z,100670.96
2018-11-29T00:25:11.958Z,100672.66
2018-11-29T00:25:46.545Z,100676.95
2018-11-29T00:26:21.540Z,100675.29
2018-11-29T00:26:56.238Z,100678.34
2018-11-29T00:27:30.878Z,100665.41
2018-11-29T00:28:06.420Z,100676.88
2018-11-29T00:28:41.128Z,100675.15
2018-11-29T00:29:15.841Z,100677.66
2018-11-29T00:29:50.575Z,100658.06
2018-11-29T00:30:25.799Z,100675.70
2018-11-29T00:31:00.427Z,100670.59
2018-11-29T00:31:35.110Z,100667.95
2018-11-29T00:32:09.825Z,100669.68
2018-11-29T00:32:44.862Z,100661.59
2018-11-29T00:33:19.618Z,100661.97
2018-11-29T00:33:54.254Z,100666.59
2018-11-29T00:34:28.889Z,100667.87
2018-11-29T00:35:03.763Z,100666.73
2018-11-29T00:35:38.526Z,100668.81
2018-11-29T00:36:13.276Z,100663.77
2018-11-29T00:36:47.979Z,100674.87
2018-11-29T00:37:22.609Z,100673.22
2018-11-29T00:37:57.318Z,100668.09
2018-11-29T00:38:32.007Z,100667.28
2018-11-29T00:39:07.580Z,100675.36
2018-11-29T00:39:42.285Z,100670.23
2018-11-29T00:40:19.698Z,100672.73
2018-11-29T00:40:54.376Z,100676.02
2018-11-29T00:41:29.000Z,100678.14
2018-11-29T00:42:03.804Z,100684.61
2018-11-29T00:42:38.434Z,100680.42
2018-11-29T00:43:13.035Z,100675.59
2018-11-29T00:43:47.690Z,100680.66
2018-11-29T00:44:22.361Z,100680.58
2018-11-29T00:44:56.959Z,100681.58
2018-11-29T00:45:31.573Z,100679.44
2018-11-29T00:46:06.414Z,100679.88
2018-11-29T00:46:41.133Z,100677.79
2018-11-29T00:47:15.771Z,100673.16
2018-11-29T00:47:50.699Z,100673.63
2018-11-29T00:48:25.377Z,100673.63
2018-11-29T00:49:00.134Z,100670.52
2018-11-29T00:49:34.830Z,100672.70
2018-11-29T00:50:10.974Z,100671.78
2018-11-29T00:50:45.598Z,100667.52
2018-11-29T00:51:20.307Z,100665.45
2018-11-29T00:51:55.020Z,100668.44
2018-11-29T00:52:29.728Z,100668.02
2018-11-29T00:53:04.825Z,100659.91
2018-11-29T00:53:39.494Z,100660.81
2018-11-29T00:54:14.149Z,100659.11
2018-11-29T00:54:48.830Z,100663.75
2018-11-29T00:55:24.061Z,100659.52
2018-11-29T00:55:58.678Z,100643.64
2018-11-29T00:56:33.382Z,100654.75
2018-11-29T00:57:08.095Z,100654.77
2018-11-29T00:57:42.759Z,100650.94
2018-11-29T00:58:17.395Z,100649.27
2018-11-29T00:58:52.033Z,100649.29
2018-11-29T00:59:26.652Z,100650.19
2018-11-29T01:00:01.375Z,100649.34
2018-11-29T01:00:36.103Z,100649.27
2018-11-29T01:01:10.744Z,100645.05
2018-11-29T01:01:50.694Z,100650.55
2018-11-29T01:02:25.347Z,100654.71
2018-11-29T01:02:59.969Z,100651.77
2018-11-29T01:03:34.751Z,100650.42
2018-11-29T01:04:09.402Z,100656.33
2018-11-29T01:04:44.124Z,100648.41
2018-11-29T01:05:19.243Z,100654.39
2018-11-29T01:05:53.890Z,100660.44
2018-11-29T01:06:28.508Z,100657.45
2018-11-29T01:07:03.151Z,100660.87
2018-11-29T01:07:37.799Z,100659.53
2018-11-29T01:08:15.258Z,100667.16
2018-11-29T01:08:50.003Z,100662.46
2018-11-29T01:09:24.944Z,100659.48
2018-11-29T01:09:59.650Z,100671.02
2018-11-29T01:10:34.330Z,100669.80
2018-11-29T01:11:09.171Z,100671.08
2018-11-29T01:11:43.947Z,100665.57
2018-11-29T01:12:18.608Z,100673.20
2018-11-29T01:12:53.284Z,100674.50
2018-11-29T01:13:28.233Z,100677.05
2018-11-29T01:14:02.974Z,100672.73
2018-11-29T01:14:37.625Z,100680.91
2018-11-29T01:15:15.138Z,100671.50
2018-11-29T01:15:50.287Z,100672.36
2018-11-29T01:16:25.004Z,100672.73
2018-11-29T01:16:59.740Z,100677.50
2018-11-29T01:17:34.392Z,100677.92
2018-11-29T01:18:09.050Z,100674.98
2018-11-29T01:18:43.712Z,100671.19
2018-11-29T01:19:18.431Z,100665.16
2018-11-29T01:19:53.109Z,100669.74
2018-11-29T01:20:27.931Z,100672.03
2018-11-29T01:21:02.633Z,100671.52
2018-11-29T01:21:37.309Z,100665.47
2018-11-29T01:22:12.425Z,100675.72
2018-11-29T01:22:47.096Z,100668.95
2018-11-29T01:23:21.801Z,100672.37
2018-11-29T01:23:56.530Z,100666.85
2018-11-29T01:24:31.283Z,100667.71
2018-11-29T01:25:07.397Z,100666.80
2018-11-29T01:25:42.116Z,100666.78
2018-11-29T01:26:16.856Z,100666.39
2018-11-29T01:26:51.466Z,100668.50
2018-11-29T01:27:26.149Z,100666.37
2018-11-29T01:28:00.767Z,100669.80
2018-11-29T01:28:35.471Z,100671.13
2018-11-29T01:29:10.114Z,100666.43
2018-11-29T01:29:44.746Z,100664.55
2018-11-29T01:30:20.586Z,100665.03
2018-11-29T01:30:55.186Z,100662.05
2018-11-29T01:31:29.774Z,100662.10
2018-11-29T01:32:04.395Z,100660.44
2018-11-29T01:32:39.596Z,100656.19
2018-11-29T01:33:14.265Z,100655.31
2018-11-29T01:33:48.959Z,100654.89
2018-11-29T01:34:23.951Z,100650.11
2018-11-29T01:34:58.586Z,100651.72
2018-11-29T01:35:33.626Z,100644.02
2018-11-29T01:36:08.339Z,100643.70
2018-11-29T01:36:42.968Z,100642.38
2018-11-29T01:37:17.717Z,100637.67
2018-11-29T01:37:52.342Z,100644.50
2018-11-29T01:38:27.075Z,100641.88
2018-11-29T01:39:01.688Z,100636.45
2018-11-29T01:39:42.981Z,100636.89
2018-11-29T01:40:21.014Z,100638.47
2018-11-29T01:40:55.713Z,100635.52
2018-11-29T01:41:30.425Z,100641.52
2018-11-29T01:42:05.346Z,100634.81
2018-11-29T01:42:40.069Z,100635.16
2018-11-29T01:43:14.660Z,100641.53
2018-11-29T01:43:49.394Z,100634.30
2018-11-29T01:44:24.125Z,100636.87
2018-11-29T01:44:58.822Z,100630.47
2018-11-29T01:45:33.916Z,100628.89
2018-11-29T01:46:08.521Z,100627.19
2018-11-29T01:46:43.485Z,100625.95
2018-11-29T01:47:18.138Z,100629.31
2018-11-29T01:47:52.833Z,100631.39
2018-11-29T01:48:27.514Z,100625.45
2018-11-29T01:49:02.080Z,100622.36
2018-11-29T01:49:36.794Z,100624.13
2018-11-29T01:50:11.416Z,100617.78
2018-11-29T01:50:46.083Z,100620.70
2018-11-29T01:51:20.712Z,100623.27
2018-11-29T01:51:55.330Z,100619.85
2018-11-29T01:52:29.946Z,100630.09
2018-11-29T01:53:04.665Z,100627.98
2018-11-29T01:53:39.311Z,100629.60
2018-11-29T01:54:13.928Z,100634.73
2018-11-29T01:54:48.619Z,100639.06
2018-11-29T01:55:23.352Z,100631.81
2018-11-29T01:55:58.027Z,100636.57
2018-11-29T01:56:32.642Z,100630.22
2018-11-29T01:57:08.130Z,100644.28
2018-11-29T01:57:42.804Z,100637.80
2018-11-29T01:58:17.528Z,100641.27
2018-11-29T01:58:52.147Z,100649.33
2018-11-29T01:59:26.770Z,100641.22
2018-11-29T02:00:01.455Z,100641.20
2018-11-29T02:00:36.852Z,100643.80
2018-11-29T02:01:11.499Z,100634.75
2018-11-29T02:01:46.126Z,100639.03
2018-11-29T02:02:20.774Z,100637.81
2018-11-29T02:02:55.675Z,100641.22
2018-11-29T02:03:29.987Z,100642.52
2018-11-29T02:04:05.310Z,100643.36
2018-11-29T02:04:40.043Z,100637.73
2018-11-29T02:05:15.140Z,100637.36
2018-11-29T02:05:49.865Z,100641.08
2018-11-29T02:06:24.557Z,100637.68
2018-11-29T02:06:59.176Z,100641.02
2018-11-29T02:07:33.832Z,100639.39
2018-11-29T02:08:08.441Z,100637.59
2018-11-29T02:08:43.145Z,100640.73
2018-11-29T02:09:17.781Z,100645.00
2018-11-29T02:09:56.558Z,100644.52
2018-11-29T02:10:36.355Z,100644.51
2018-11-29T02:11:11.021Z,100646.66
2018-11-29T02:11:45.669Z,100645.38
2018-11-29T02:12:20.311Z,100641.20
2018-11-29T02:12:55.513Z,100642.45
2018-11-29T02:13:30.111Z,100637.42
2018-11-29T02:14:05.223Z,100645.12
2018-11-29T02:14:39.855Z,100638.22
2018-11-29T02:15:14.508Z,100638.23
2018-11-29T02:15:49.138Z,100638.66
2018-11-29T02:16:23.742Z,100638.23
2018-11-29T02:16:58.399Z,100637.01
2018-11-29T02:17:33.015Z,100637.86
2018-11-29T02:18:07.728Z,100634.79
2018-11-29T02:18:42.946Z,100636.01
2018-11-29T02:19:17.703Z,100633.45
2018-11-29T02:19:52.314Z,100633.51
2018-11-29T02:20:27.003Z,100619.36
2018-11-29T02:21:01.632Z,100637.23
2018-11-29T02:21:36.602Z,100636.02
2018-11-29T02:22:11.212Z,100631.34
2018-11-29T02:22:46.548Z,100625.35
2018-11-29T02:23:21.173Z,100633.39
2018-11-29T02:23:55.765Z,100625.28
2018-11-29T02:24:30.437Z,100628.34
2018-11-29T02:25:06.177Z,100627.85
2018-11-29T02:25:40.810Z,100630.75
2018-11-29T02:26:15.433Z,100572.96
2018-11-29T02:26:50.097Z,100629.59
2018-11-29T02:27:24.709Z,100635.38
2018-11-29T02:27:59.350Z,100632.52
2018-11-29T02:28:34.053Z,100631.67
2018-11-29T02:29:08.778Z,100624.39
2018-11-29T02:29:43.510Z,100624.83
2018-11-29T02:30:20.449Z,100624.86
2018-11-29T02:30:55.182Z,100628.34
2018-11-29T02:31:34.038Z,100622.34
2018-11-29T02:32:08.709Z,100628.38
2018-11-29T02:32:43.641Z,100627.92
2018-11-29T02:33:18.300Z,100625.81
2018-11-29T02:33:53.122Z,100618.55
2018-11-29T02:34:27.732Z,100630.11
2018-11-29T02:35:02.726Z,100624.59
2018-11-29T02:35:37.363Z,100624.84
2018-11-29T02:36:11.989Z,100618.00
2018-11-29T02:36:46.750Z,100618.06
2018-11-29T02:37:21.423Z,100624.42
2018-11-29T02:37:56.093Z,100622.35
2018-11-29T02:38:31.056Z,100622.36
2018-11-29T02:39:08.285Z,100630.09
2018-11-29T02:39:42.954Z,100623.64
2018-11-29T02:40:18.395Z,100623.68
2018-11-29T02:40:53.193Z,100624.55
2018-11-29T02:41:27.858Z,100630.89
2018-11-29T02:42:02.461Z,100630.05
2018-11-29T02:42:37.202Z,100630.11
2018-11-29T02:43:11.936Z,100622.42
2018-11-29T02:43:46.765Z,100624.55
2018-11-29T02:44:21.416Z,100622.77
2018-11-29T02:44:56.270Z,100626.63
2018-11-29T02:45:31.105Z,100624.55
2018-11-29T02:46:05.935Z,100620.27
2018-11-29T02:46:40.603Z,100622.78
2018-11-29T02:47:15.254Z,100615.08
2018-11-29T02:47:50.417Z,100624.91
2018-11-29T02:48:25.069Z,100619.70
2018-11-29T02:48:59.705Z,100616.57
2018-11-29T02:49:34.402Z,100611.81
2018-11-29T02:50:10.076Z,100616.64
2018-11-29T02:50:44.835Z,100609.47
2018-11-29T02:51:19.479Z,100624.36
2018-11-29T02:51:54.088Z,100624.34
2018-11-29T02:52:28.685Z,100625.75
2018-11-29T02:53:03.316Z,100614.17
2018-11-29T02:53:38.054Z,100624.84
2018-11-29T02:54:12.685Z,100627.04
2018-11-29T02:54:47.326Z,100623.98
2018-11-29T02:55:22.202Z,100625.69
2018-11-29T02:55:56.922Z,100620.52
2018-11-29T02:56:31.530Z,100614.53
2018-11-29T02:57:06.133Z,100620.56
2018-11-29T02:57:41.157Z,100620.98
2018-11-29T02:58:15.807Z,100617.64
2018-11-29T02:58:50.763Z,100609.97
2018-11-29T02:59:25.604Z,100613.44
2018-11-29T03:00:00.217Z,100611.64
2018-11-29T03:00:34.990Z,100615.88
2018-11-29T03:01:09.678Z,100615.03
2018-11-29T03:01:44.287Z,100613.80
2018-11-29T03:02:19.025Z,100615.56
2018-11-29T03:02:53.732Z,100615.52
2018-11-29T03:03:28.450Z,100612.03
2018-11-29T03:04:03.161Z,100609.52
2018-11-29T03:04:37.859Z,100607.86
2018-11-29T03:05:12.607Z,100612.10
2018-11-29T03:05:47.440Z,100614.20
2018-11-29T03:06:22.158Z,100608.23
2018-11-29T03:06:56.843Z,100602.68
2018-11-29T03:07:31.445Z,100611.17
2018-11-29T03:08:06.276Z,100604.25
2018-11-29T03:08:41.018Z,100608.03
2018-11-29T03:09:15.980Z,100604.19
2018-11-29T03:09:54.611Z,100608.59
2018-11-29T03:10:29.519Z,100611.52
2018-11-29T03:11:04.107Z,100606.80
2018-11-29T03:11:38.759Z,100568.20
2018-11-29T03:12:13.382Z,100608.60
2018-11-29T03:12:48.091Z,100602.53
2018-11-29T03:13:22.711Z,100606.33
2018-11-29T03:13:57.348Z,100604.58
2018-11-29T03:14:32.007Z,100608.73
2018-11-29T03:15:10.414Z,100604.02
2018-11-29T03:15:45.132Z,100607.32
2018-11-29T03:16:19.873Z,100608.30
2018-11-29T03:16:54.504Z,100607.95
2018-11-29T03:17:29.478Z,100605.94
2018-11-29T03:18:04.178Z,100608.03
2018-11-29T03:18:38.844Z,100608.00
2018-11-29T03:19:13.468Z,100610.99
2018-11-29T03:19:48.424Z,100614.30
2018-11-29T03:20:23.097Z,100559.08
2018-11-29T03:20:57.946Z,100612.29
2018-11-29T03:21:32.581Z,100614.52
2018-11-29T03:22:07.464Z,100615.86
2018-11-29T03:22:42.516Z,100606.87
2018-11-29T03:23:17.408Z,100608.67
2018-11-29T03:23:52.172Z,100611.67
2018-11-29T03:24:26.857Z,100609.53
2018-11-29T03:25:01.599Z,100606.58
2018-11-29T03:25:36.400Z,100612.52
2018-11-29T03:26:11.122Z,100612.95
2018-11-29T03:26:45.865Z,100609.53
2018-11-29T03:27:20.727Z,100609.38
2018-11-29T03:27:55.579Z,100609.02
2018-11-29T03:28:30.230Z,100609.09
2018-11-29T03:29:05.262Z,100606.54
2018-11-29T03:29:39.884Z,100608.25
2018-11-29T03:30:15.611Z,100606.16
2018-11-29T03:30:50.474Z,100605.23
2018-11-29T03:31:25.098Z,100602.60
2018-11-29T03:32:00.375Z,100603.10
2018-11-29T03:32:35.023Z,100611.23
2018-11-29T03:33:09.685Z,100607.81
2018-11-29T03:33:44.338Z,100608.23
2018-11-29T03:34:19.343Z,100603.11
2018-11-29T03:34:54.554Z,100607.38
2018-11-29T03:35:29.153Z,100602.68
2018-11-29T03:36:03.841Z,100605.23
2018-11-29T03:36:38.507Z,100600.03
2018-11-29T03:37:13.154Z,100598.33
2018-11-29T03:37:48.963Z,100599.63
2018-11-29T03:38:23.779Z,100601.34
2018-11-29T03:38:58.465Z,100594.48
2018-11-29T03:39:33.213Z,100581.75
2018-11-29T03:40:13.602Z,100599.20
2018-11-29T03:40:48.605Z,100599.68
2018-11-29T03:41:23.408Z,100595.79
2018-11-29T03:41:58.063Z,100596.70
2018-11-29T03:42:32.691Z,100591.55
2018-11-29T03:43:07.833Z,100599.59
2018-11-29T03:43:42.465Z,100597.46
2018-11-29T03:44:17.405Z,100593.46
2018-11-29T03:44:52.264Z,100594.77
2018-11-29T03:45:26.905Z,100591.91
2018-11-29T03:46:01.554Z,100590.20
2018-11-29T03:46:36.233Z,100598.41
2018-11-29T03:47:10.901Z,100590.27
2018-11-29T03:47:46.804Z,100590.22
2018-11-29T03:48:22.385Z,100589.36
2018-11-29T03:48:57.172Z,100588.77
2018-11-29T03:49:31.778Z,100589.36
2018-11-29T03:50:09.597Z,100587.64
2018-11-29T03:50:44.321Z,100588.00
2018-11-29T03:51:19.236Z,100587.98
2018-11-29T03:51:54.158Z,100582.88
2018-11-29T03:52:28.945Z,100577.33
2018-11-29T03:53:03.584Z,100583.30
2018-11-29T03:53:38.186Z,100576.95
2018-11-29T03:54:12.831Z,100576.09
2018-11-29T03:54:47.781Z,100577.41
2018-11-29T03:55:22.784Z,100573.25
2018-11-29T03:55:57.560Z,100565.91
2018-11-29T03:56:32.213Z,100569.27
2018-11-29T03:57:07.456Z,100569.32
2018-11-29T03:57:42.100Z,100565.33
2018-11-29T03:58:16.975Z,100561.05
2018-11-29T03:58:51.692Z,100553.88
2018-11-29T03:59:26.367Z,100548.32
2018-11-29T04:00:00.983Z,100554.59
2018-11-29T04:00:35.614Z,100548.69
2018-11-29T04:01:10.312Z,100547.38
2018-11-29T04:01:45.363Z,100545.67
2018-11-29T04:02:20.256Z,100538.48
2018-11-29T04:02:54.859Z,100539.69
2018-11-29T04:03:29.649Z,100537.55
2018-11-29T04:04:04.807Z,100536.69
2018-11-29T04:04:39.569Z,100532.85
2018-11-29T04:05:15.541Z,100528.48
2018-11-29T04:05:50.491Z,100534.13
2018-11-29T04:06:25.144Z,100523.08
2018-11-29T04:06:59.818Z,100531.66
2018-11-29T04:07:34.570Z,100530.79
2018-11-29T04:08:09.433Z,100535.48
2018-11-29T04:08:44.291Z,100529.08
2018-11-29T04:09:19.094Z,100527.00
2018-11-29T04:09:53.837Z,100520.54
2018-11-29T04:10:28.525Z,100524.30
2018-11-29T04:11:03.198Z,100527.89
2018-11-29T04:11:37.848Z,100522.91
2018-11-29T04:12:12.506Z,100522.04
2018-11-29T04:12:47.590Z,100525.98
2018-11-29T04:13:22.274Z,100527.27
2018-11-29T04:13:56.917Z,100519.98
2018-11-29T04:14:31.624Z,100523.32
2018-11-29T04:15:07.886Z,100527.52
2018-11-29T04:15:42.531Z,100516.34
2018-11-29T04:16:17.635Z,100528.80
2018-11-29T04:16:52.381Z,100523.75
2018-11-29T04:17:27.245Z,100520.34
2018-11-29T04:18:01.874Z,100523.31
2018-11-29T04:18:36.521Z,100516.34
2018-11-29T04:19:11.260Z,100516.77
2018-11-29T04:19:46.830Z,100517.20
2018-11-29T04:20:21.507Z,100520.98
2018-11-29T04:20:56.191Z,100521.41
2018-11-29T04:21:30.916Z,100523.02
2018-11-29T04:22:05.608Z,100509.91
2018-11-29T04:22:40.343Z,100520.67
2018-11-29T04:23:14.976Z,100517.69
2018-11-29T04:23:49.710Z,100522.83
2018-11-29T04:24:24.379Z,100516.91
2018-11-29T04:24:59.014Z,100522.48
2018-11-29T04:25:34.102Z,100522.98
2018-11-29T04:26:08.738Z,100531.95
2018-11-29T04:26:43.709Z,100526.33
2018-11-29T04:27:19.380Z,100524.70
2018-11-29T04:27:54.031Z,100534.53
2018-11-29T04:28:28.750Z,100538.08
2018-11-29T04:29:03.395Z,100538.44
2018-11-29T04:29:38.064Z,100527.83
2018-11-29T04:30:17.210Z,100535.02
2018-11-29T04:30:51.918Z,100537.50
2018-11-29T04:31:26.529Z,100532.73
2018-11-29T04:32:01.266Z,100538.36
2018-11-29T04:32:35.869Z,100530.73
2018-11-29T04:33:10.559Z,100535.02
2018-11-29T04:33:45.169Z,100536.73
2018-11-29T04:34:19.824Z,100538.87
2018-11-29T04:34:54.496Z,100536.36
2018-11-29T04:35:29.153Z,100540.22
2018-11-29T04:36:04.126Z,100537.95
2018-11-29T04:36:38.725Z,100531.03
2018-11-29T04:37:13.332Z,100531.30
2018-11-29T04:37:48.025Z,100539.91
2018-11-29T04:38:22.668Z,100533.08
2018-11-29T04:38:57.297Z,100534.80
2018-11-29T04:39:31.930Z,100539.42
2018-11-29T04:40:09.238Z,100539.86
2018-11-29T04:40:44.085Z,100540.80
2018-11-29T04:41:18.982Z,100546.75
2018-11-29T04:41:53.647Z,100545.97
2018-11-29T04:42:28.249Z,100544.14
2018-11-29T04:43:02.905Z,100543.78
2018-11-29T04:43:37.617Z,100550.25
2018-11-29T04:44:12.365Z,100548.17
2018-11-29T04:44:47.387Z,100554.47
2018-11-29T04:45:22.594Z,100550.25
2018-11-29T04:46:08.541Z,100541.73
2018-11-29T04:46:49.125Z,100544.71
2018-11-29T04:47:23.860Z,100547.28
2018-11-29T04:47:58.618Z,100541.36
2018-11-29T04:48:33.296Z,100544.29
2018-11-29T04:49:07.978Z,100545.19
2018-11-29T04:49:43.257Z,100547.34
2018-11-29T04:50:18.777Z,100546.47
2018-11-29T04:50:53.515Z,100549.83
2018-11-29T04:51:28.230Z,100557.00
2018-11-29T04:52:02.932Z,100558.36
2018-11-29T04:52:37.753Z,100552.83
2018-11-29T04:53:12.339Z,100554.58
2018-11-29T04:53:47.146Z,100558.44
2018-11-29T04:54:21.909Z,100558.45
2018-11-29T04:54:56.610Z,100554.66
2018-11-29T04:55:31.229Z,100557.64
2018-11-29T04:56:05.898Z,100552.91
2018-11-29T04:56:40.547Z,100550.81
2018-11-29T04:57:15.220Z,100551.67
2018-11-29T04:57:49.996Z,100549.53
2018-11-29T04:58:24.658Z,100551.68
2018-11-29T04:58:59.342Z,100549.12
2018-11-29T04:59:33.988Z,100546.99
2018-11-29T05:00:17.769Z,100541.91
2018-11-29T05:00:52.436Z,100542.77
2018-11-29T05:01:27.101Z,100541.49
2018-11-29T05:02:02.183Z,100539.79
2018-11-29T05:02:36.813Z,100526.59
2018-11-29T05:03:11.558Z,100535.94
2018-11-29T05:03:46.215Z,100528.13
2018-11-29T05:04:20.942Z,100533.73
2018-11-29T05:04:55.773Z,100528.97
2018-11-29T05:05:30.426Z,100530.32
2018-11-29T05:06:05.137Z,100533.75
2018-11-29T05:06:39.852Z,100536.77
2018-11-29T05:07:14.577Z,100539.77
2018-11-29T05:07:49.361Z,100533.75
2018-11-29T05:08:24.126Z,100536.36
2018-11-29T05:08:58.810Z,100530.80
2018-11-29T05:09:33.571Z,100526.13
2018-11-29T05:10:09.947Z,100535.52
2018-11-29T05:10:44.556Z,100527.26
2018-11-29T05:11:19.255Z,100520.87
2018-11-29T05:11:53.898Z,100521.77
2018-11-29T05:12:31.465Z,100517.02
2018-11-29T05:13:06.849Z,100522.63
2018-11-29T05:13:41.469Z,100515.37
2018-11-29T05:14:16.179Z,100509.83
2018-11-29T05:14:50.825Z,100509.41
2018-11-29T05:15:25.498Z,100512.86
2018-11-29T05:16:00.217Z,100509.45
2018-11-29T05:16:34.851Z,100506.89
2018-11-29T05:17:09.590Z,100510.31
2018-11-29T05:17:44.259Z,100503.53
2018-11-29T05:18:19.004Z,100504.27
2018-11-29T05:18:53.841Z,100505.61
2018-11-29T05:19:28.486Z,100505.23
2018-11-29T05:20:03.218Z,100510.80
2018-11-29T05:20:37.875Z,100507.82
2018-11-29T05:21:12.696Z,100509.09
2018-11-29T05:21:47.559Z,100512.09
2018-11-29T05:22:22.273Z,100511.67
2018-11-29T05:22:57.080Z,100508.67
2018-11-29T05:23:31.737Z,100513.73
2018-11-29T05:24:06.919Z,100513.78
2018-11-29T05:24:41.597Z,100506.13
2018-11-29T05:25:17.108Z,100520.20
2018-11-29T05:25:51.208Z,100521.91
2018-11-29T05:26:25.956Z,100521.47
2018-11-29T05:27:00.690Z,100516.80
2018-11-29T05:27:36.112Z,100518.13
2018-11-29T05:28:10.794Z,100512.59
2018-11-29T05:28:46.711Z,100512.22
2018-11-29T05:29:21.676Z,100519.89
2018-11-29T05:29:56.381Z,100519.05
2018-11-29T05:30:31.052Z,100511.84
2018-11-29T05:31:06.486Z,100508.42
2018-11-29T05:31:42.184Z,100507.99
2018-11-29T05:32:17.008Z,100504.95
2018-11-29T05:32:51.809Z,100503.19
2018-11-29T05:33:26.701Z,100500.69
2018-11-29T05:34:01.396Z,100497.75
2018-11-29T05:34:36.180Z,100496.91
2018-11-29T05:35:11.755Z,100497.81
2018-11-29T05:35:46.715Z,100491.84
2018-11-29T05:36:21.637Z,100487.93
2018-11-29T05:36:56.301Z,100494.72
2018-11-29T05:37:30.943Z,100492.21
2018-11-29T05:38:05.663Z,100493.55
2018-11-29T05:38:40.273Z,100490.57
2018-11-29T05:39:15.016Z,100489.23
2018-11-29T05:39:49.840Z,100488.78
2018-11-29T05:40:24.725Z,100493.49
2018-11-29T05:40:59.651Z,100488.42
2018-11-29T05:41:34.392Z,100493.55
2018-11-29T05:42:09.000Z,100490.12
2018-11-29T05:42:43.961Z,100484.17
2018-11-29T05:43:18.601Z,100493.05
2018-11-29T05:43:53.307Z,100487.04
2018-11-29T05:44:28.042Z,100482.26
2018-11-29T05:45:02.857Z,100484.83
2018-11-29T05:45:37.508Z,100485.76
2018-11-29T05:46:12.145Z,100485.02
2018-11-29T05:46:47.514Z,100484.64
2018-11-29T05:47:22.289Z,100488.05
2018-11-29T05:47:56.917Z,100487.22
2018-11-29T05:48:31.753Z,100491.91
2018-11-29T05:49:06.774Z,100479.58
2018-11-29T05:49:41.475Z,100487.69
2018-11-29T05:50:16.227Z,100492.81
2018-11-29T05:50:51.087Z,100493.67
2018-11-29T05:51:25.750Z,100485.55
2018-11-29T05:52:00.470Z,100482.98
2018-11-29T05:52:35.165Z,100483.80
2018-11-29T05:53:10.103Z,100485.08
2018-11-29T05:53:44.848Z,100489.39
2018-11-29T05:54:19.520Z,100489.83
2018-11-29T05:54:54.134Z,100497.09
2018-11-29T05:55:28.784Z,100487.31
2018-11-29T05:56:03.453Z,100494.58
2018-11-29T05:56:38.105Z,100491.52
2018-11-29T05:57:12.819Z,100493.20
2018-11-29T05:57:47.654Z,100494.53
2018-11-29T05:58:22.390Z,100495.42
2018-11-29T05:58:57.012Z,100496.28
2018-11-29T05:59:31.707Z,100494.91
2018-11-29T06:00:09.246Z,100493.20
2018-11-29T06:00:44.327Z,100495.38
2018-11-29T06:01:21.838Z,100491.11
2018-11-29T06:01:56.593Z,100495.42
2018-11-29T06:02:31.238Z,100495.42
2018-11-29T06:03:06.187Z,100492.91
2018-11-29T06:03:40.798Z,100501.45
2018-11-29T06:04:15.487Z,100499.32
2018-11-29T06:04:50.145Z,100496.28
2018-11-29T06:05:24.835Z,100494.20
2018-11-29T06:05:59.504Z,100492.00
2018-11-29T06:06:34.172Z,100480.86
2018-11-29T06:07:08.827Z,100481.23
2018-11-29T06:07:43.856Z,100484.20
2018-11-29T06:08:18.610Z,100477.81
2018-11-29T06:08:53.445Z,100476.16
2018-11-29T06:09:28.068Z,100477.92
2018-11-29T06:10:02.701Z,100474.51
2018-11-29T06:10:37.332Z,100473.62
2018-11-29T06:11:12.040Z,100473.55
2018-11-29T06:11:46.876Z,100477.39
2018-11-29T06:12:21.670Z,100471.41
2018-11-29T06:12:56.335Z,100472.27
2018-11-29T06:13:31.030Z,100465.50
2018-11-29T06:14:07.058Z,100472.80
2018-11-29T06:14:41.898Z,100472.38
2018-11-29T06:15:16.867Z,100475.74
2018-11-29T06:15:51.564Z,100476.16
2018-11-29T06:16:26.192Z,100473.97
2018-11-29T06:17:00.984Z,100476.52
2018-11-29T06:17:35.642Z,100473.17
2018-11-29T06:18:10.299Z,100476.48
2018-11-29T06:18:45.063Z,100480.81
2018-11-29T06:19:20.285Z,100480.48
2018-11-29T06:19:55.032Z,100476.70
2018-11-29T06:20:29.702Z,100475.86
2018-11-29T06:21:04.776Z,100471.59
2018-11-29T06:21:39.569Z,100475.90
2018-11-29T06:22:14.382Z,100470.26
2018-11-29T06:22:49.342Z,100472.00
2018-11-29T06:23:24.151Z,100468.17
2018-11-29T06:23:58.821Z,100467.75
2018-11-29T06:24:33.544Z,100480.91
2018-11-29T06:25:08.377Z,100473.61
2018-11-29T06:25:43.048Z,100468.54
2018-11-29T06:26:17.971Z,100473.67
2018-11-29T06:26:52.812Z,100472.87
2018-11-29T06:27:27.633Z,100476.33
2018-11-29T06:28:02.678Z,100474.16
2018-11-29T06:28:37.468Z,100473.67
2018-11-29T06:29:12.202Z,100474.52
2018-11-29T06:29:47.134Z,100466.89
2018-11-29T06:30:23.201Z,100474.16
2018-11-29T06:30:57.939Z,100467.37
2018-11-29T06:31:32.659Z,100476.75
2018-11-29T06:32:07.371Z,100476.77
2018-11-29T06:32:42.369Z,100473.67
2018-11-29T06:33:17.189Z,100475.00
2018-11-29T06:33:52.135Z,100476.28
2018-11-29T06:34:26.784Z,100471.59
2018-11-29T06:35:01.500Z,100472.80
2018-11-29T06:35:36.190Z,100479.48
2018-11-29T06:36:10.932Z,100478.25
2018-11-29T06:36:45.744Z,100474.89
2018-11-29T06:37:20.784Z,100478.30
2018-11-29T06:37:55.551Z,100477.02
2018-11-29T06:38:30.209Z,100480.07
2018-11-29T06:39:07.314Z,100476.71
2018-11-29T06:39:42.041Z,100484.38
2018-11-29T06:40:17.575Z,100483.53
2018-11-29T06:40:52.389Z,100484.81
2018-11-29T06:41:27.111Z,100486.09
2018-11-29T06:42:02.124Z,100484.75
2018-11-29T06:42:37.064Z,100480.91
2018-11-29T06:43:11.896Z,100487.63
2018-11-29T06:43:46.968Z,100488.80